createdAt,value
2017-10-06T14:23:15.030Z,981
2017-10-06T14:24:17.287Z,980.6
2017-10-06T14:25:19.420Z,980.6
2017-10-06T14:26:22.173Z,980.5
2017-10-06T14:27:25.204Z,980.6
2017-10-06T14:28:27.322Z,980.5
2017-10-06T14:29:29.468Z,980.5
2017-10-06T14:30:31.553Z,980.4
2017-10-06T14:31:34.848Z,980.4
2017-10-06T14:32:37.051Z,980.3
2017-10-06T14:33:39.211Z,980.5
2017-10-06T14:34:41.336Z,980.4
2017-10-06T14:35:43.471Z,980.4
2017-10-06T14:36:45.526Z,980.5
2017-10-06T14:37:47.755Z,980.3
2017-10-06T14:38:49.868Z,980.4
2017-10-06T14:39:51.944Z,980.5
2017-10-06T14:40:54.220Z,980.5
2017-10-06T14:41:56.277Z,980.5
2017-10-06T14:42:58.402Z,980.6
2017-10-06T14:44:00.542Z,980.6
2017-10-06T14:45:02.624Z,980.6
2017-10-06T14:46:04.738Z,980.6
2017-10-06T14:47:06.809Z,980.6
2017-10-06T14:48:08.927Z,980.7
2017-10-06T14:49:11.058Z,980.7
2017-10-06T14:50:13.154Z,980.7
2017-10-06T14:51:15.200Z,980.7
2017-10-06T14:52:17.265Z,980.7
2017-10-06T14:53:19.350Z,980.7
2017-10-06T14:54:21.430Z,980.7
2017-10-06T14:55:23.610Z,980.7
2017-10-06T14:56:25.785Z,980.8
2017-10-06T14:57:27.852Z,980.6
2017-10-06T14:58:29.962Z,980.6
2017-10-06T14:59:32.124Z,980.7
2017-10-06T15:00:34.215Z,980.6
2017-10-06T15:01:36.303Z,980.7
2017-10-06T15:02:38.391Z,980.7
2017-10-06T15:03:40.472Z,980.8
2017-10-06T15:04:42.616Z,980.8
2017-10-06T15:05:44.696Z,980.7
2017-10-06T15:06:46.751Z,980.7
2017-10-06T15:07:48.849Z,980.8
2017-10-06T15:08:50.947Z,980.8
2017-10-06T15:09:53.027Z,980.7
2017-10-06T15:10:55.150Z,980.8
2017-10-06T15:11:57.261Z,980.8
2017-10-06T15:12:59.432Z,980.7
2017-10-06T15:14:01.548Z,980.8
2017-10-06T15:15:03.677Z,980.7
2017-10-06T15:16:05.759Z,980.8
2017-10-06T15:17:07.904Z,980.8
2017-10-06T15:18:09.986Z,980.8
2017-10-06T15:19:12.083Z,980.8
2017-10-06T15:20:14.429Z,980.9
2017-10-06T15:21:16.511Z,980.9
2017-10-06T15:22:18.613Z,980.8
2017-10-06T15:23:20.705Z,980.8
2017-10-06T15:24:22.790Z,980.7
2017-10-06T15:25:24.932Z,980.9
2017-10-06T15:26:27.043Z,980.8
2017-10-06T15:27:29.148Z,980.9
2017-10-06T15:28:31.289Z,980.8
2017-10-06T15:29:33.412Z,980.9
2017-10-06T15:30:35.561Z,980.8
2017-10-06T15:31:37.697Z,980.9
2017-10-06T15:32:39.817Z,981
2017-10-06T15:33:41.910Z,981
2017-10-06T15:34:44.041Z,981
2017-10-06T15:35:46.194Z,981
2017-10-06T15:36:48.327Z,981
2017-10-06T15:37:50.463Z,981
2017-10-06T15:38:52.558Z,981
2017-10-06T15:39:54.621Z,981
2017-10-06T15:40:57.101Z,981
2017-10-06T15:41:59.223Z,981
2017-10-06T15:43:01.282Z,981
2017-10-06T15:44:03.407Z,981
2017-10-06T15:45:05.503Z,981.1
2017-10-06T15:46:07.652Z,981
2017-10-06T15:47:09.876Z,981.1
2017-10-06T15:48:11.979Z,981.1
2017-10-06T15:49:14.122Z,981.1
2017-10-06T15:50:16.230Z,981.1
2017-10-06T15:51:18.374Z,981.2
2017-10-06T15:52:20.501Z,981.1
2017-10-06T15:53:22.637Z,981.1
2017-10-06T15:54:24.758Z,981.2
2017-10-06T15:55:27.000Z,981.1
2017-10-06T15:56:29.098Z,981.1
2017-10-06T15:57:31.229Z,981.1
2017-10-06T15:58:33.322Z,981.2
2017-10-06T15:59:35.500Z,981.2
2017-10-06T16:00:37.641Z,981.2
2017-10-06T16:01:40.300Z,981.1
2017-10-06T16:02:42.415Z,981.1
2017-10-06T16:03:44.566Z,981.1
2017-10-06T16:04:46.718Z,981.1
2017-10-06T16:05:48.827Z,981.1
2017-10-06T16:06:50.998Z,981.1
2017-10-06T16:07:53.185Z,981
2017-10-06T16:08:55.335Z,981.1
2017-10-06T16:09:57.482Z,981.1
2017-10-06T16:10:59.613Z,981.2
2017-10-06T16:12:01.728Z,981.2
2017-10-06T16:13:03.892Z,981.2
2017-10-06T16:14:06.084Z,981.2
2017-10-06T16:15:08.218Z,981.2
2017-10-06T16:16:10.387Z,981.2
2017-10-06T16:17:12.578Z,981.2
2017-10-06T16:18:14.745Z,981.2
2017-10-06T16:19:16.856Z,981.3
2017-10-06T16:20:18.993Z,981.2
2017-10-06T16:21:21.170Z,981.4
2017-10-06T16:22:23.295Z,981.3
2017-10-06T16:23:25.387Z,981.3
2017-10-06T16:24:27.522Z,981.4
2017-10-06T16:25:29.585Z,981.4
2017-10-06T16:26:34.406Z,981.3
2017-10-06T16:27:36.609Z,981.4
2017-10-06T16:28:38.734Z,981.4
2017-10-06T16:29:40.875Z,981.4
2017-10-06T16:30:43.080Z,981.4
2017-10-06T16:31:45.232Z,981.4
2017-10-06T16:32:47.378Z,981.5
2017-10-06T16:33:49.526Z,981.5
2017-10-06T16:34:51.615Z,981.5
2017-10-06T16:35:53.920Z,981.5
2017-10-06T16:36:56.004Z,981.5
2017-10-06T16:37:58.129Z,981.5
2017-10-06T16:39:00.309Z,981.5
2017-10-06T16:40:02.460Z,981.5
2017-10-06T16:41:04.590Z,981.5
2017-10-06T16:42:06.678Z,981.5
2017-10-06T16:43:08.864Z,981.5
2017-10-06T16:44:10.949Z,981.5
2017-10-06T16:45:13.082Z,981.6
2017-10-06T16:46:15.247Z,981.6
2017-10-06T16:47:17.436Z,981.7
2017-10-06T16:48:19.570Z,981.6
2017-10-06T16:49:21.653Z,981.6
2017-10-06T16:50:23.776Z,981.7
2017-10-06T16:51:25.868Z,981.8
2017-10-06T16:52:27.990Z,981.7
2017-10-06T16:53:30.119Z,981.7
2017-10-06T16:54:32.214Z,981.6
2017-10-06T16:55:34.282Z,981.7
2017-10-06T16:56:36.369Z,981.6
2017-10-06T16:57:38.478Z,981.7
2017-10-06T16:58:40.870Z,981.7
2017-10-06T16:59:42.956Z,981.8
2017-10-06T17:00:45.104Z,981.8
2017-10-06T17:01:47.209Z,981.8
2017-10-06T17:02:49.334Z,981.7
2017-10-06T17:03:51.423Z,981.7
2017-10-06T17:04:53.547Z,981.8
2017-10-06T17:05:55.664Z,981.7
2017-10-06T17:06:57.795Z,981.8
2017-10-06T17:07:59.984Z,981.8
2017-10-06T17:09:02.143Z,981.7
2017-10-06T17:10:04.247Z,981.9
2017-10-06T17:11:06.295Z,981.9
2017-10-06T17:12:08.399Z,981.9
2017-10-06T17:13:10.518Z,982
2017-10-06T17:14:12.816Z,981.9
2017-10-06T17:15:14.971Z,981.9
2017-10-06T17:16:17.103Z,981.9
2017-10-06T17:17:19.247Z,982
2017-10-06T17:18:21.359Z,982
2017-10-06T17:19:23.483Z,982
2017-10-06T17:20:25.585Z,982
2017-10-06T17:21:27.721Z,982.1
2017-10-06T17:22:29.801Z,982.2
2017-10-06T17:23:31.930Z,982.1
2017-10-06T17:24:34.075Z,982.1
2017-10-06T17:25:36.153Z,982.1
2017-10-06T17:26:38.249Z,982.1
2017-10-06T17:27:40.340Z,982.2
2017-10-06T17:28:42.450Z,982.1
2017-10-06T17:29:44.563Z,982.2
2017-10-06T17:30:46.621Z,982.2
2017-10-06T17:31:48.689Z,982.2
2017-10-06T17:32:50.828Z,982.3
2017-10-06T17:33:52.902Z,982.2
2017-10-06T17:34:55.108Z,982.3
2017-10-06T17:35:57.244Z,982.3
2017-10-06T17:36:59.584Z,982.3
2017-10-06T17:38:01.734Z,982.3
2017-10-06T17:39:03.855Z,982.3
2017-10-06T17:40:06.411Z,982.3
2017-10-06T17:41:08.570Z,982.3
2017-10-06T17:42:10.633Z,982.4
2017-10-06T17:43:12.665Z,982.3
2017-10-06T17:44:14.797Z,982.4
2017-10-06T17:45:17.211Z,982.4
2017-10-06T17:46:19.326Z,982.4
2017-10-06T17:47:21.508Z,982.5
2017-10-06T17:48:23.584Z,982.5
2017-10-06T17:49:25.734Z,982.5
2017-10-06T17:50:27.872Z,982.6
2017-10-06T17:51:29.993Z,982.6
2017-10-06T17:52:32.206Z,982.5
2017-10-06T17:53:34.328Z,982.5
2017-10-06T17:54:36.414Z,982.6
2017-10-06T17:55:38.608Z,982.6
2017-10-06T17:56:40.710Z,982.6
2017-10-06T17:57:42.905Z,982.7
2017-10-06T17:58:45.123Z,982.5
2017-10-06T17:59:47.212Z,982.7
2017-10-06T18:00:49.336Z,982.7
2017-10-06T18:01:51.474Z,982.7
2017-10-06T18:02:53.594Z,982.8
2017-10-06T18:03:55.858Z,982.7
2017-10-06T18:04:58.027Z,982.8
2017-10-06T18:06:00.143Z,982.8
2017-10-06T18:07:02.255Z,982.7
2017-10-06T18:08:04.359Z,982.8
2017-10-06T18:09:06.481Z,982.8
2017-10-06T18:10:08.565Z,982.8
2017-10-06T18:11:10.744Z,982.9
2017-10-06T18:12:12.846Z,982.8
2017-10-06T18:13:14.956Z,982.9
2017-10-06T18:14:17.076Z,982.9
2017-10-06T18:15:19.246Z,982.9
2017-10-06T18:16:21.423Z,982.9
2017-10-06T18:17:23.546Z,982.9
2017-10-06T18:18:25.693Z,982.9
2017-10-06T18:19:27.822Z,982.9
2017-10-06T18:20:30.053Z,982.9
2017-10-06T18:21:32.223Z,982.9
2017-10-06T18:22:34.409Z,982.9
2017-10-06T18:23:36.625Z,983
2017-10-06T18:24:38.716Z,983
2017-10-06T18:25:40.871Z,983
2017-10-06T18:26:42.999Z,983
2017-10-06T18:27:45.096Z,983.1
2017-10-06T18:28:47.236Z,983
2017-10-06T18:29:49.344Z,983
2017-10-06T18:30:51.436Z,983.1
2017-10-06T18:31:53.843Z,983.2
2017-10-06T18:32:55.922Z,983.1
2017-10-06T18:33:58.176Z,983.1
2017-10-06T18:35:00.257Z,983.2
2017-10-06T18:36:02.393Z,983.3
2017-10-06T18:37:04.849Z,983.3
2017-10-06T18:38:07.027Z,983.3
2017-10-06T18:39:09.118Z,983.3
2017-10-06T18:40:11.519Z,983.4
2017-10-06T18:41:13.693Z,983.3
2017-10-06T18:42:16.170Z,983.4
2017-10-06T18:43:18.253Z,983.4
2017-10-06T18:44:20.408Z,983.4
2017-10-06T18:45:22.516Z,983.4
2017-10-06T18:46:24.639Z,983.4
2017-10-06T18:47:27.158Z,983.4
2017-10-06T18:48:29.317Z,983.4
2017-10-06T18:49:31.532Z,983.4
2017-10-06T18:50:33.630Z,983.4
2017-10-06T18:51:35.716Z,983.4
2017-10-06T18:52:38.112Z,983.5
2017-10-06T18:53:40.222Z,983.4
2017-10-06T18:54:42.446Z,983.4
2017-10-06T18:55:44.606Z,983.5
2017-10-06T18:56:46.740Z,983.4
2017-10-06T18:57:49.248Z,983.5
2017-10-06T18:58:51.412Z,983.5
2017-10-06T18:59:53.539Z,983.5
2017-10-06T19:00:55.685Z,983.5
2017-10-06T19:01:57.795Z,983.5
2017-10-06T19:03:00.262Z,983.5
2017-10-06T19:04:02.425Z,983.5
2017-10-06T19:05:04.545Z,983.5
2017-10-06T19:06:06.627Z,983.7
2017-10-06T19:07:08.772Z,983.6
2017-10-06T19:08:11.223Z,983.7
2017-10-06T19:09:13.336Z,983.7
2017-10-06T19:10:15.469Z,983.7
2017-10-06T19:11:17.574Z,983.7
2017-10-06T19:12:19.804Z,983.7
2017-10-06T19:13:22.351Z,983.7
2017-10-06T19:14:24.519Z,983.7
2017-10-06T19:15:26.678Z,983.7
2017-10-06T19:16:28.815Z,983.6
2017-10-06T19:17:30.961Z,983.7
2017-10-06T19:18:33.412Z,983.7
2017-10-06T19:19:35.724Z,983.7
2017-10-06T19:20:37.867Z,983.8
2017-10-06T19:21:40.021Z,983.7
2017-10-06T19:22:42.141Z,983.7
2017-10-06T19:23:44.658Z,983.7
2017-10-06T19:24:46.774Z,983.8
2017-10-06T19:25:48.865Z,983.7
2017-10-06T19:26:51.032Z,983.8
2017-10-06T19:27:53.250Z,983.7
2017-10-06T19:28:55.663Z,983.7
2017-10-06T19:29:57.780Z,983.8
2017-10-06T19:30:59.903Z,983.8
2017-10-06T19:32:02.081Z,983.8
2017-10-06T19:33:04.236Z,983.8
2017-10-06T19:34:06.694Z,983.9
2017-10-06T19:35:08.823Z,983.8
2017-10-06T19:36:10.887Z,983.9
2017-10-06T19:37:13.059Z,983.8
2017-10-06T19:38:15.141Z,983.9
2017-10-06T19:39:17.575Z,983.8
2017-10-06T19:40:19.651Z,983.8
2017-10-06T19:41:21.769Z,983.9
2017-10-06T19:42:23.906Z,983.8
2017-10-06T19:43:26.034Z,983.8
2017-10-06T19:44:28.470Z,983.8
2017-10-06T19:45:30.564Z,983.8
2017-10-06T19:46:32.693Z,983.9
2017-10-06T19:47:34.892Z,983.9
2017-10-06T19:48:37.000Z,983.9
2017-10-06T19:49:39.365Z,983.8
2017-10-06T19:50:41.481Z,983.8
2017-10-06T19:51:43.668Z,983.9
2017-10-06T19:55:11.414Z,983.9
2017-10-06T19:56:18.882Z,983.9
2017-10-06T20:00:53.990Z,983.9
2017-10-06T20:03:14.112Z,984
2017-10-06T20:04:16.257Z,984
2017-10-06T20:05:18.400Z,984
2017-10-06T20:06:20.905Z,983.9
2017-10-06T20:07:28.189Z,983.9
2017-10-06T20:09:37.477Z,983.9
2017-10-06T20:12:59.999Z,984
2017-10-06T20:14:03.341Z,984
2017-10-06T20:16:17.988Z,984
2017-10-06T20:18:38.304Z,983.9
2017-10-06T20:19:40.540Z,984
2017-10-06T20:20:47.890Z,983.9
2017-10-06T20:21:55.040Z,983.9
2017-10-06T20:26:35.150Z,984
2017-10-06T20:33:40.860Z,984.1
2017-10-06T20:35:55.911Z,984.2
2017-10-06T20:38:05.221Z,984.3
2017-10-06T20:39:07.286Z,984.3
2017-10-06T20:41:17.035Z,984.2
2017-10-06T20:43:31.609Z,984.4
2017-10-06T20:45:46.646Z,984.3
2017-10-06T20:46:48.730Z,984.3
2017-10-06T20:47:56.091Z,984.4
2017-10-06T20:48:58.220Z,984.4
2017-10-06T20:50:05.478Z,984.4
2017-10-06T20:51:08.150Z,984.4
2017-10-06T20:53:17.721Z,984.5
2017-10-06T21:00:17.988Z,984.5
2017-10-06T21:01:20.532Z,984.6
2017-10-06T21:02:22.963Z,984.6
2017-10-06T21:05:50.382Z,984.5
2017-10-06T21:06:52.485Z,984.5
2017-10-06T21:10:14.853Z,984.6
2017-10-06T21:11:16.951Z,984.6
2017-10-06T21:12:19.064Z,984.6
2017-10-06T21:13:21.469Z,984.6
2017-10-06T21:18:01.680Z,984.8
2017-10-06T21:20:16.714Z,984.8
2017-10-06T21:22:36.759Z,984.8
2017-10-06T21:24:57.153Z,984.8
2017-10-06T21:27:11.915Z,984.8
2017-10-06T21:28:14.038Z,984.8
2017-10-06T21:29:16.137Z,984.9
2017-10-06T21:30:23.742Z,984.9
2017-10-06T21:33:46.115Z,985
2017-10-06T21:35:55.722Z,985
2017-10-06T21:38:10.542Z,985
2017-10-06T21:40:19.948Z,985.1
2017-10-06T21:41:22.314Z,985.1
2017-10-06T21:42:24.386Z,985
2017-10-06T21:43:31.634Z,985.1
2017-10-06T21:45:40.927Z,985.1
2017-10-06T21:47:55.841Z,985.1
2017-10-06T21:50:10.197Z,985.2
2017-10-06T21:51:12.329Z,985.1
2017-10-06T21:53:22.003Z,985.1
2017-10-06T21:54:24.087Z,985.2
2017-10-06T21:56:34.632Z,985.1
2017-10-06T22:00:07.600Z,985
2017-10-06T22:02:27.665Z,985.1
2017-10-06T22:04:42.676Z,985
2017-10-06T22:06:57.662Z,985.1
2017-10-06T22:08:04.996Z,985.1
2017-10-06T22:09:07.414Z,985.1
2017-10-06T22:11:27.392Z,985.2
2017-10-06T22:12:34.738Z,985.1
2017-10-06T22:13:36.819Z,985.1
2017-10-06T22:14:44.479Z,985.2
2017-10-06T22:15:46.557Z,985.2
2017-10-06T22:16:48.630Z,985.2
2017-10-06T22:17:55.935Z,985.2
2017-10-06T22:19:03.220Z,985.2
2017-10-06T22:20:10.923Z,985.1
2017-10-06T22:21:18.281Z,985.2
2017-10-06T22:23:38.278Z,985.2
2017-10-06T22:24:45.699Z,985.2
2017-10-06T22:27:06.065Z,985.1
2017-10-06T22:28:08.235Z,985.1
2017-10-06T22:29:15.494Z,985.2
2017-10-06T22:30:22.774Z,985.2
2017-10-06T22:31:30.404Z,985.2
2017-10-06T22:32:32.499Z,985.1
2017-10-06T22:33:34.962Z,985.1
2017-10-06T22:35:49.747Z,985.2
2017-10-06T22:36:52.306Z,985.2
2017-10-06T22:40:19.793Z,985.2
2017-10-06T22:42:40.300Z,985.2
2017-10-06T22:48:38.598Z,985.2
2017-10-06T22:49:40.655Z,985.1
2017-10-06T22:50:48.046Z,985.1
2017-10-06T22:53:02.553Z,985.2
2017-10-06T22:57:37.773Z,985.1
2017-10-06T22:59:47.581Z,985.2
2017-10-06T23:00:50.267Z,985.2
2017-10-06T23:04:07.237Z,985.2
2017-10-06T23:07:24.418Z,985.3
2017-10-06T23:09:39.085Z,985.3
2017-10-06T23:11:59.225Z,985.4
2017-10-06T23:13:01.278Z,985.4
2017-10-06T23:14:08.626Z,985.4
2017-10-06T23:15:10.741Z,985.5
2017-10-06T23:16:18.342Z,985.4
2017-10-06T23:18:33.075Z,985.4
2017-10-06T23:24:09.945Z,985.6
2017-10-06T23:25:12.016Z,985.5
2017-10-06T23:27:21.711Z,985.4
2017-10-06T23:29:36.450Z,985.4
2017-10-06T23:31:51.315Z,985.5
2017-10-06T23:35:08.751Z,985.5
2017-10-06T23:37:23.450Z,985.5
2017-10-06T23:38:31.034Z,985.6
2017-10-06T23:39:38.246Z,985.6
2017-10-06T23:43:00.160Z,985.5
2017-10-06T23:45:15.152Z,985.6
2017-10-06T23:46:22.512Z,985.6
2017-10-06T23:47:24.538Z,985.5
2017-10-06T23:48:31.951Z,985.6
2017-10-06T23:53:01.693Z,985.6
2017-10-06T23:54:09.035Z,985.7
2017-10-06T23:55:16.711Z,985.6
2017-10-06T23:57:31.470Z,985.7
2017-10-06T23:58:33.556Z,985.7
2017-10-06T23:59:40.815Z,985.7
